BEL3TX EBBR-EDDH
Flight info
| Callsign | BEL3TX |
|---|---|
| Flight time | 0h 53m |
| Altitude | 35000 |
| Route | NIK L191 VICOT N873 ANDIK M105 RIBSO RIBSO7A |
| Aircraft | A320/M-SDE3FGHIRWY/LB1 |
Departure
| Time | 2026-05-07 17:54 |
|---|---|
| Airport | Brussels Airport (EBBR) |
Arrival
| Time | 2026-05-07 18:47 |
|---|---|
| Airport | Hamburg Helmut Schmidt Airport (EDDH) |
| Time | Latitude | Longitude | Altitude | Speed | Heading |
|---|---|---|---|---|---|
| 2026-05-07 17:07 | 50.90443 | 4.48734 | 121 ft | 0 kts | 155° |
| 2026-05-07 17:43 | 50.90448 | 4.48731 | 121 ft | 4 kts | 155° |
| 2026-05-07 17:44 | 50.90472 | 4.48713 | 118 ft | 4 kts | 155° |
| 2026-05-07 17:44 | 50.90497 | 4.48694 | 116 ft | 4 kts | 150° |
| 2026-05-07 17:44 | 50.90518 | 4.48670 | 117 ft | 4 kts | 121° |
| 2026-05-07 17:44 | 50.90522 | 4.48648 | 117 ft | 0 kts | 65° |
| 2026-05-07 17:48 | 50.90533 | 4.48687 | 116 ft | 5 kts | 65° |
| 2026-05-07 17:49 | 50.90555 | 4.48764 | 118 ft | 11 kts | 65° |
| 2026-05-07 17:49 | 50.90587 | 4.48875 | 119 ft | 11 kts | 65° |
| 2026-05-07 17:49 | 50.90624 | 4.49001 | 118 ft | 14 kts | 65° |
| 2026-05-07 17:49 | 50.90695 | 4.49098 | 121 ft | 15 kts | 0° |
| 2026-05-07 17:50 | 50.90762 | 4.49208 | 120 ft | 15 kts | 65° |
| 2026-05-07 17:50 | 50.90807 | 4.49366 | 121 ft | 16 kts | 65° |
| 2026-05-07 17:50 | 50.90856 | 4.49535 | 121 ft | 18 kts | 65° |
| 2026-05-07 17:50 | 50.90912 | 4.49725 | 122 ft | 19 kts | 65° |
| 2026-05-07 17:51 | 50.90973 | 4.49852 | 122 ft | 7 kts | 38° |
| 2026-05-07 17:51 | 50.90994 | 4.49878 | 120 ft | 10 kts | 37° |
| 2026-05-07 17:51 | 50.91030 | 4.49915 | 119 ft | 4 kts | 26° |
| 2026-05-07 17:51 | 50.91057 | 4.49930 | 119 ft | 0 kts | 20° |
| 2026-05-07 17:52 | 50.91065 | 4.49935 | 118 ft | 0 kts | 19° |
| 2026-05-07 17:52 | 50.91122 | 4.49934 | 120 ft | 13 kts | 333° |
| 2026-05-07 17:53 | 50.91117 | 4.49807 | 118 ft | 13 kts | 247° |
| 2026-05-07 17:53 | 50.91012 | 4.49444 | 117 ft | 73 kts | 245° |
| 2026-05-07 17:53 | 50.90705 | 4.48378 | 118 ft | 137 kts | 245° |
| 2026-05-07 17:53 | 50.90238 | 4.46759 | 169 ft | 181 kts | 246° |
| 2026-05-07 17:54 | 50.89707 | 4.44922 | 795 ft | 185 kts | 249° |
| 2026-05-07 17:54 | 50.89588 | 4.42950 | 1646 ft | 181 kts | 287° |
| 2026-05-07 17:54 | 50.90314 | 4.41425 | 2483 ft | 174 kts | 326° |
| 2026-05-07 17:54 | 50.91340 | 4.40409 | 3189 ft | 173 kts | 332° |
| 2026-05-07 17:55 | 50.92426 | 4.39500 | 3667 ft | 186 kts | 334° |
| 2026-05-07 17:55 | 50.93654 | 4.38534 | 3981 ft | 209 kts | 334° |
| 2026-05-07 17:55 | 50.95012 | 4.37445 | 4359 ft | 228 kts | 333° |
| 2026-05-07 17:55 | 50.96498 | 4.36216 | 4747 ft | 253 kts | 333° |
| 2026-05-07 17:56 | 50.98097 | 4.34859 | 5431 ft | 266 kts | 332° |
| 2026-05-07 17:56 | 50.99740 | 4.33433 | 6331 ft | 272 kts | 330° |
| 2026-05-07 17:56 | 51.01404 | 4.31964 | 7209 ft | 276 kts | 330° |
| 2026-05-07 17:56 | 51.03090 | 4.30460 | 8104 ft | 279 kts | 329° |
| 2026-05-07 17:57 | 51.04794 | 4.28934 | 9001 ft | 283 kts | 329° |
| 2026-05-07 17:57 | 51.05935 | 4.27911 | 9596 ft | 286 kts | 329° |
| 2026-05-07 17:57 | 51.08288 | 4.25792 | 10472 ft | 302 kts | 329° |
| 2026-05-07 17:57 | 51.10186 | 4.24076 | 10754 ft | 325 kts | 329° |
| 2026-05-07 17:58 | 51.12222 | 4.22232 | 11033 ft | 346 kts | 329° |
| 2026-05-07 17:58 | 51.14341 | 4.20317 | 11653 ft | 354 kts | 329° |
| 2026-05-07 17:58 | 51.16488 | 4.18337 | 12386 ft | 358 kts | 326° |
| 2026-05-07 17:58 | 51.18525 | 4.16013 | 13127 ft | 362 kts | 322° |
| 2026-05-07 17:59 | 51.20561 | 4.13624 | 13864 ft | 366 kts | 322° |
| 2026-05-07 17:59 | 51.22621 | 4.11203 | 14518 ft | 369 kts | 322° |
| 2026-05-07 17:59 | 51.24714 | 4.08793 | 15171 ft | 373 kts | 326° |
| 2026-05-07 17:59 | 51.27033 | 4.06887 | 15834 ft | 378 kts | 338° |
| 2026-05-07 18:00 | 51.29542 | 4.05748 | 16476 ft | 383 kts | 350° |
| 2026-05-07 18:00 | 51.32251 | 4.05693 | 17118 ft | 389 kts | 7° |
| 2026-05-07 18:00 | 51.34846 | 4.06966 | 17751 ft | 394 kts | 25° |
| 2026-05-07 18:00 | 51.37305 | 4.08954 | 18392 ft | 398 kts | 26° |
| 2026-05-07 18:01 | 51.39773 | 4.11011 | 18956 ft | 401 kts | 27° |
| 2026-05-07 18:01 | 51.42255 | 4.13106 | 19497 ft | 405 kts | 27° |
| 2026-05-07 18:01 | 51.44754 | 4.15217 | 20063 ft | 408 kts | 26° |
| 2026-05-07 18:01 | 51.47281 | 4.17347 | 20604 ft | 412 kts | 26° |
| 2026-05-07 18:02 | 51.52367 | 4.21620 | 21648 ft | 418 kts | 26° |
| 2026-05-07 18:02 | 51.54955 | 4.23800 | 22154 ft | 422 kts | 26° |
| 2026-05-07 18:02 | 51.57561 | 4.26001 | 22640 ft | 425 kts | 26° |
| 2026-05-07 18:03 | 51.60191 | 4.28221 | 23113 ft | 428 kts | 26° |
| 2026-05-07 18:03 | 51.62838 | 4.30456 | 23578 ft | 432 kts | 26° |
| 2026-05-07 18:03 | 51.65507 | 4.32711 | 23968 ft | 435 kts | 26° |
| 2026-05-07 18:03 | 51.68194 | 4.34982 | 24345 ft | 437 kts | 26° |
| 2026-05-07 18:04 | 51.70894 | 4.37270 | 24717 ft | 440 kts | 26° |
| 2026-05-07 18:04 | 51.73610 | 4.39577 | 25090 ft | 442 kts | 26° |
| 2026-05-07 18:04 | 51.76333 | 4.41891 | 25457 ft | 444 kts | 26° |
| 2026-05-07 18:04 | 51.79080 | 4.44226 | 25820 ft | 446 kts | 26° |
| 2026-05-07 18:05 | 51.81832 | 4.46574 | 26174 ft | 449 kts | 26° |
| 2026-05-07 18:05 | 51.84635 | 4.48971 | 26524 ft | 451 kts | 26° |
| 2026-05-07 18:05 | 51.87379 | 4.51321 | 26862 ft | 453 kts | 26° |
| 2026-05-07 18:05 | 51.90175 | 4.53715 | 27189 ft | 455 kts | 26° |
| 2026-05-07 18:06 | 51.92981 | 4.56118 | 27507 ft | 458 kts | 26° |
| 2026-05-07 18:06 | 51.95840 | 4.58572 | 27829 ft | 460 kts | 27° |
| 2026-05-07 18:06 | 51.98631 | 4.60973 | 28131 ft | 462 kts | 27° |
| 2026-05-07 18:06 | 52.01513 | 4.63453 | 28427 ft | 464 kts | 27° |
| 2026-05-07 18:07 | 52.04352 | 4.65898 | 28983 ft | 458 kts | 27° |
| 2026-05-07 18:07 | 52.07101 | 4.68266 | 29853 ft | 449 kts | 27° |
| 2026-05-07 18:07 | 52.09846 | 4.70638 | 30427 ft | 445 kts | 27° |
| 2026-05-07 18:07 | 52.12577 | 4.73007 | 30793 ft | 445 kts | 27° |
| 2026-05-07 18:08 | 52.15344 | 4.75411 | 31194 ft | 445 kts | 27° |
| 2026-05-07 18:08 | 52.18066 | 4.77780 | 31649 ft | 443 kts | 27° |
| 2026-05-07 18:08 | 52.20804 | 4.80162 | 32016 ft | 443 kts | 27° |
| 2026-05-07 18:08 | 52.23503 | 4.82509 | 32504 ft | 441 kts | 27° |
| 2026-05-07 18:09 | 52.26203 | 4.84863 | 32949 ft | 439 kts | 27° |
| 2026-05-07 18:09 | 52.28896 | 4.87214 | 33373 ft | 438 kts | 27° |
| 2026-05-07 18:09 | 52.31585 | 4.89565 | 33782 ft | 438 kts | 27° |
| 2026-05-07 18:09 | 52.34272 | 4.91915 | 34141 ft | 438 kts | 27° |
| 2026-05-07 18:10 | 52.36950 | 4.94264 | 34461 ft | 437 kts | 27° |
| 2026-05-07 18:10 | 52.39596 | 4.96593 | 34753 ft | 437 kts | 27° |
| 2026-05-07 18:10 | 52.42274 | 4.98949 | 35010 ft | 438 kts | 28° |
| 2026-05-07 18:11 | 52.47707 | 5.03732 | 35092 ft | 441 kts | 28° |
| 2026-05-07 18:11 | 52.53075 | 5.08471 | 35082 ft | 441 kts | 28° |
| 2026-05-07 18:12 | 52.58503 | 5.13283 | 35082 ft | 441 kts | 28° |
| 2026-05-07 18:12 | 52.63902 | 5.18082 | 35085 ft | 441 kts | 28° |
| 2026-05-07 18:13 | 52.69258 | 5.22967 | 35092 ft | 439 kts | 34° |
| 2026-05-07 18:13 | 52.71623 | 5.26025 | 35099 ft | 438 kts | 45° |
| 2026-05-07 18:13 | 52.73654 | 5.29749 | 35097 ft | 436 kts | 54° |
| 2026-05-07 18:14 | 52.76437 | 5.38554 | 35091 ft | 433 kts | 72° |
| 2026-05-07 18:14 | 52.78470 | 5.47996 | 35080 ft | 433 kts | 71° |
| 2026-05-07 18:15 | 52.80472 | 5.57320 | 35077 ft | 434 kts | 72° |
| 2026-05-07 18:15 | 52.82481 | 5.66725 | 35079 ft | 434 kts | 72° |
| 2026-05-07 18:16 | 52.84486 | 5.76164 | 35079 ft | 435 kts | 71° |
| 2026-05-07 18:16 | 52.86485 | 5.85603 | 35083 ft | 435 kts | 72° |
| 2026-05-07 18:17 | 52.88152 | 5.93518 | 35095 ft | 434 kts | 72° |
| 2026-05-07 18:17 | 52.90127 | 6.02936 | 35105 ft | 433 kts | 71° |
| 2026-05-07 18:18 | 52.92078 | 6.12289 | 35088 ft | 432 kts | 72° |
| 2026-05-07 18:18 | 52.94031 | 6.21716 | 35084 ft | 432 kts | 72° |
| 2026-05-07 18:19 | 52.95982 | 6.31142 | 35082 ft | 432 kts | 72° |
| 2026-05-07 18:19 | 52.97942 | 6.40637 | 35080 ft | 432 kts | 72° |
| 2026-05-07 18:20 | 52.99874 | 6.50091 | 35089 ft | 432 kts | 72° |
| 2026-05-07 18:20 | 53.01801 | 6.59548 | 35100 ft | 432 kts | 72° |
| 2026-05-07 18:21 | 53.03729 | 6.69001 | 35092 ft | 432 kts | 72° |
| 2026-05-07 18:21 | 53.05634 | 6.78403 | 35091 ft | 432 kts | 72° |
| 2026-05-07 18:22 | 53.07539 | 6.87932 | 35112 ft | 431 kts | 72° |
| 2026-05-07 18:22 | 53.09410 | 6.97318 | 34883 ft | 427 kts | 72° |
| 2026-05-07 18:22 | 53.10341 | 7.01982 | 34643 ft | 423 kts | 73° |
| 2026-05-07 18:23 | 53.11263 | 7.06604 | 34399 ft | 419 kts | 73° |
| 2026-05-07 18:23 | 53.12171 | 7.11187 | 34165 ft | 416 kts | 73° |
| 2026-05-07 18:23 | 53.13068 | 7.15737 | 33899 ft | 412 kts | 72° |
| 2026-05-07 18:23 | 53.13961 | 7.20268 | 33624 ft | 411 kts | 72° |
| 2026-05-07 18:24 | 53.14850 | 7.24777 | 33341 ft | 409 kts | 72° |
| 2026-05-07 18:24 | 53.15733 | 7.29275 | 33068 ft | 408 kts | 72° |
| 2026-05-07 18:24 | 53.16611 | 7.33757 | 32797 ft | 406 kts | 73° |
| 2026-05-07 18:24 | 53.17487 | 7.38229 | 32527 ft | 405 kts | 72° |
| 2026-05-07 18:25 | 53.18357 | 7.42688 | 32263 ft | 403 kts | 72° |
| 2026-05-07 18:25 | 53.19221 | 7.47128 | 32011 ft | 402 kts | 72° |
| 2026-05-07 18:25 | 53.20078 | 7.51554 | 31744 ft | 401 kts | 72° |
| 2026-05-07 18:25 | 53.20931 | 7.55975 | 31480 ft | 399 kts | 73° |
| 2026-05-07 18:26 | 53.21778 | 7.60381 | 31229 ft | 398 kts | 72° |
| 2026-05-07 18:26 | 53.22620 | 7.64767 | 30972 ft | 397 kts | 72° |
| 2026-05-07 18:26 | 53.23463 | 7.69146 | 30721 ft | 396 kts | 72° |
| 2026-05-07 18:26 | 53.24307 | 7.73524 | 30469 ft | 397 kts | 72° |
| 2026-05-07 18:27 | 53.25151 | 7.77910 | 30222 ft | 397 kts | 72° |
| 2026-05-07 18:27 | 53.25992 | 7.82302 | 29941 ft | 396 kts | 72° |
| 2026-05-07 18:27 | 53.26826 | 7.86675 | 29652 ft | 394 kts | 72° |
| 2026-05-07 18:27 | 53.27648 | 7.90994 | 29288 ft | 388 kts | 72° |
| 2026-05-07 18:28 | 53.28461 | 7.95271 | 28858 ft | 384 kts | 72° |
| 2026-05-07 18:28 | 53.29266 | 7.99507 | 28431 ft | 380 kts | 72° |
| 2026-05-07 18:28 | 53.30059 | 8.03693 | 28021 ft | 376 kts | 72° |
| 2026-05-07 18:28 | 53.30966 | 8.07779 | 27620 ft | 376 kts | 62° |
| 2026-05-07 18:29 | 53.32341 | 8.11468 | 26850 ft | 374 kts | 56° |
| 2026-05-07 18:29 | 53.33785 | 8.15054 | 26286 ft | 368 kts | 55° |
| 2026-05-07 18:29 | 53.35215 | 8.18541 | 25856 ft | 359 kts | 55° |
| 2026-05-07 18:29 | 53.36618 | 8.21944 | 25483 ft | 353 kts | 55° |
| 2026-05-07 18:30 | 53.38043 | 8.25406 | 24748 ft | 363 kts | 55° |
| 2026-05-07 18:30 | 53.39473 | 8.28895 | 24051 ft | 362 kts | 55° |
| 2026-05-07 18:30 | 53.40885 | 8.32363 | 23316 ft | 359 kts | 55° |
| 2026-05-07 18:30 | 53.42264 | 8.35766 | 22532 ft | 355 kts | 55° |
| 2026-05-07 18:31 | 53.43641 | 8.39176 | 21751 ft | 352 kts | 56° |
| 2026-05-07 18:31 | 53.45023 | 8.42604 | 20985 ft | 348 kts | 56° |
| 2026-05-07 18:31 | 53.46351 | 8.45901 | 20258 ft | 344 kts | 56° |
| 2026-05-07 18:31 | 53.47684 | 8.49217 | 19530 ft | 341 kts | 55° |
| 2026-05-07 18:32 | 53.49002 | 8.52493 | 18834 ft | 337 kts | 56° |
| 2026-05-07 18:32 | 53.50311 | 8.55747 | 18105 ft | 335 kts | 55° |
| 2026-05-07 18:32 | 53.51609 | 8.58977 | 17322 ft | 332 kts | 56° |
| 2026-05-07 18:32 | 53.52895 | 8.62175 | 16555 ft | 331 kts | 55° |
| 2026-05-07 18:33 | 53.54256 | 8.65559 | 15806 ft | 367 kts | 56° |
| 2026-05-07 18:33 | 53.55740 | 8.69262 | 15064 ft | 393 kts | 56° |
| 2026-05-07 18:33 | 53.57238 | 8.73015 | 14350 ft | 379 kts | 56° |
| 2026-05-07 18:33 | 53.58678 | 8.76631 | 13620 ft | 365 kts | 56° |
| 2026-05-07 18:34 | 53.60066 | 8.80127 | 12843 ft | 353 kts | 56° |
| 2026-05-07 18:34 | 53.61413 | 8.83517 | 12093 ft | 343 kts | 56° |
| 2026-05-07 18:34 | 53.62720 | 8.86800 | 11414 ft | 332 kts | 56° |
| 2026-05-07 18:34 | 53.63963 | 8.89932 | 11163 ft | 309 kts | 56° |
| 2026-05-07 18:35 | 53.65124 | 8.92869 | 11101 ft | 297 kts | 56° |
| 2026-05-07 18:35 | 53.66262 | 8.95752 | 11106 ft | 295 kts | 56° |
| 2026-05-07 18:35 | 53.67398 | 8.98630 | 11111 ft | 295 kts | 56° |
| 2026-05-07 18:35 | 53.68535 | 9.01510 | 10930 ft | 294 kts | 56° |
| 2026-05-07 18:36 | 53.69644 | 9.04383 | 10683 ft | 291 kts | 62° |
| 2026-05-07 18:36 | 53.70217 | 9.07603 | 10381 ft | 287 kts | 88° |
| 2026-05-07 18:36 | 53.69885 | 9.10879 | 10017 ft | 284 kts | 114° |
| 2026-05-07 18:36 | 53.68767 | 9.13604 | 9605 ft | 283 kts | 132° |
| 2026-05-07 18:37 | 53.67415 | 9.16008 | 9193 ft | 282 kts | 134° |
| 2026-05-07 18:37 | 53.66052 | 9.18338 | 8627 ft | 277 kts | 134° |
| 2026-05-07 18:37 | 53.64720 | 9.20591 | 8306 ft | 261 kts | 134° |
| 2026-05-07 18:37 | 53.63474 | 9.22669 | 8029 ft | 245 kts | 134° |
| 2026-05-07 18:38 | 53.62262 | 9.24659 | 7506 ft | 242 kts | 134° |
| 2026-05-07 18:38 | 53.61070 | 9.26621 | 6975 ft | 238 kts | 132° |
| 2026-05-07 18:38 | 53.60135 | 9.28874 | 6450 ft | 233 kts | 116° |
| 2026-05-07 18:38 | 53.59405 | 9.31298 | 5880 ft | 231 kts | 114° |
| 2026-05-07 18:39 | 53.58707 | 9.33738 | 5503 ft | 230 kts | 114° |
| 2026-05-07 18:39 | 53.58023 | 9.36158 | 5186 ft | 228 kts | 114° |
| 2026-05-07 18:39 | 53.57346 | 9.38551 | 4867 ft | 225 kts | 114° |
| 2026-05-07 18:39 | 53.56677 | 9.40922 | 4527 ft | 223 kts | 114° |
| 2026-05-07 18:40 | 53.56015 | 9.43265 | 4279 ft | 220 kts | 114° |
| 2026-05-07 18:40 | 53.55354 | 9.45602 | 4096 ft | 222 kts | 114° |
| 2026-05-07 18:40 | 53.54693 | 9.47940 | 3915 ft | 222 kts | 114° |
| 2026-05-07 18:40 | 53.54031 | 9.50278 | 3734 ft | 221 kts | 114° |
| 2026-05-07 18:41 | 53.53395 | 9.52619 | 3554 ft | 220 kts | 109° |
| 2026-05-07 18:41 | 53.52947 | 9.55032 | 3378 ft | 219 kts | 105° |
| 2026-05-07 18:41 | 53.52538 | 9.57532 | 3195 ft | 219 kts | 104° |
| 2026-05-07 18:41 | 53.52147 | 9.59964 | 3067 ft | 219 kts | 104° |
| 2026-05-07 18:42 | 53.51752 | 9.62427 | 3052 ft | 218 kts | 104° |
| 2026-05-07 18:42 | 53.51356 | 9.64889 | 3052 ft | 219 kts | 104° |
| 2026-05-07 18:42 | 53.50974 | 9.67360 | 3051 ft | 218 kts | 99° |
| 2026-05-07 18:42 | 53.51059 | 9.69882 | 3051 ft | 218 kts | 77° |
| 2026-05-07 18:43 | 53.51440 | 9.72348 | 3048 ft | 218 kts | 75° |
| 2026-05-07 18:43 | 53.51858 | 9.74794 | 3046 ft | 214 kts | 74° |
| 2026-05-07 18:43 | 53.52308 | 9.77086 | 2970 ft | 202 kts | 62° |
| 2026-05-07 18:43 | 53.53149 | 9.78931 | 2772 ft | 198 kts | 51° |
| 2026-05-07 18:44 | 53.54029 | 9.80680 | 2548 ft | 193 kts | 51° |
| 2026-05-07 18:44 | 53.54879 | 9.82379 | 2262 ft | 184 kts | 51° |
| 2026-05-07 18:44 | 53.55669 | 9.83965 | 2020 ft | 172 kts | 52° |
| 2026-05-07 18:44 | 53.56427 | 9.85489 | 1790 ft | 168 kts | 52° |
| 2026-05-07 18:45 | 53.57173 | 9.86990 | 1567 ft | 175 kts | 52° |
| 2026-05-07 18:45 | 53.57983 | 9.88624 | 1309 ft | 178 kts | 51° |
| 2026-05-07 18:45 | 53.58745 | 9.90155 | 1065 ft | 163 kts | 51° |
| 2026-05-07 18:45 | 53.59421 | 9.91516 | 871 ft | 142 kts | 51° |
| 2026-05-07 18:46 | 53.60027 | 9.92744 | 667 ft | 132 kts | 50° |
| 2026-05-07 18:46 | 53.60598 | 9.93930 | 478 ft | 130 kts | 50° |
| 2026-05-07 18:46 | 53.61182 | 9.95071 | 387 ft | 129 kts | 50° |
| 2026-05-07 18:46 | 53.61752 | 9.96225 | 148 ft | 126 kts | 52° |
| 2026-05-07 18:47 | 53.62306 | 9.97349 | 51 ft | 122 kts | 50° |
| 2026-05-07 18:47 | 53.62691 | 9.98131 | 50 ft | 55 kts | 50° |
| 2026-05-07 18:47 | 53.62885 | 9.98514 | 49 ft | 37 kts | 50° |
| 2026-05-07 18:47 | 53.63039 | 9.98823 | 49 ft | 32 kts | 50° |
| 2026-05-07 18:48 | 53.63173 | 9.99096 | 51 ft | 31 kts | 50° |
| 2026-05-07 18:48 | 53.63282 | 9.99376 | 51 ft | 20 kts | 76° |
| 2026-05-07 18:48 | 53.63284 | 9.99585 | 50 ft | 5 kts | 99° |
| 2026-05-07 18:48 | 53.63283 | 9.99590 | 50 ft | 0 kts | 99° |
| 2026-05-07 18:50 | 53.63273 | 9.99680 | 50 ft | 13 kts | 108° |
| 2026-05-07 18:50 | 53.63199 | 9.99784 | 50 ft | 15 kts | 153° |
| 2026-05-07 18:50 | 53.63128 | 9.99901 | 50 ft | 15 kts | 83° |
| 2026-05-07 18:50 | 53.63184 | 10.00042 | 51 ft | 3 kts | 52° |
| 2026-05-07 18:51 | 53.63211 | 10.00099 | 49 ft | 9 kts | 52° |
| 2026-05-07 18:51 | 53.63264 | 10.00170 | 51 ft | 11 kts | 12° |
| 2026-05-07 18:51 | 53.63350 | 10.00165 | 51 ft | 14 kts | 355° |
| 2026-05-07 18:51 | 53.63400 | 10.00211 | 49 ft | 9 kts | 58° |
| 2026-05-07 18:52 | 53.63413 | 10.00309 | 51 ft | 5 kts | 84° |
| 2026-05-07 18:52 | 53.63415 | 10.00329 | 51 ft | 2 kts | 84° |
| 2026-05-07 18:52 | 53.63415 | 10.00343 | 51 ft | 0 kts | 85° |